Time;durP1;ratioP1;P1;durP2;ratioP2;P2;SDS_P1;SDS_P2;PMS_P1;PMS_P2;Temp;Humidity;BMP_temperature;BMP_pressure;BME280_temperature;BME280_humidity;BME280_pressure;Samples;Min_cycle;Max_cycle;Signal;HPM_P1;HPM_P2
2023/02/03 00:01:42;;;;;;;0.40;0.40;;;;;;;1.90;67.13;96934.59;4984501;28;20502;-55
2023/02/03 00:04:09;;;;;;;2.75;2.60;;;;;;;2.38;65.13;96994.66;4985888;28;20116;-56
2023/02/03 00:06:36;;;;;;;2.42;0.77;;;;;;;2.34;63.49;96978.06;4985431;28;20090;-55
2023/02/03 00:09:02;;;;;;;4.32;0.73;;;;;;;2.56;63.89;97018.16;4986097;28;20065;-55
2023/02/03 00:11:30;;;;;;;0.40;0.40;;;;;;;2.41;64.21;97004.94;4985762;28;20108;-56
2023/02/03 00:13:56;;;;;;;0.40;0.40;;;;;;;2.32;64.74;97017.78;4984228;28;20512;-56
2023/02/03 00:16:23;;;;;;;0.35;0.35;;;;;;;2.53;65.88;97029.72;4985708;28;20149;-55
2023/02/03 00:18:50;;;;;;;0.30;0.30;;;;;;;2.61;66.19;97026.19;4985490;28;20050;-56
2023/02/03 00:21:16;;;;;;;0.40;0.40;;;;;;;2.59;63.51;97017.50;4984180;28;20133;-56
2023/02/03 00:23:43;;;;;;;0.50;0.50;;;;;;;2.60;64.17;97041.00;4985370;28;20082;-57
2023/02/03 00:26:12;;;;;;;0.40;0.40;;;;;;;2.58;63.69;97032.28;4985361;28;20050;-56
2023/02/03 00:28:39;;;;;;;0.82;0.82;;;;;;;2.21;64.26;96989.16;4985251;28;20110;-56
2023/02/03 00:31:14;;;;;;;0.40;0.40;;;;;;;2.66;64.66;97053.38;4985867;28;20181;-55
2023/02/03 00:33:41;;;;;;;0.30;0.30;;;;;;;2.64;64.83;97036.50;4985529;28;20068;-54
2023/02/03 00:36:08;;;;;;;1.05;0.95;;;;;;;2.64;64.78;97040.03;4985629;28;20058;-56
2023/02/03 00:38:35;;;;;;;1.77;1.70;;;;;;;2.62;64.89;97041.47;4985449;28;20129;-56
2023/02/03 00:41:01;;;;;;;1.27;1.27;;;;;;;2.21;64.87;97000.91;4985332;28;20117;-56
2023/02/03 00:43:28;;;;;;;0.50;0.50;;;;;;;2.47;64.70;97037.25;4985575;28;20762;-54
2023/02/03 00:45:55;;;;;;;2.67;2.45;;;;;;;2.33;64.49;97030.31;4985408;28;20540;-56
2023/02/03 00:48:21;;;;;;;0.47;0.47;;;;;;;2.41;63.63;97032.25;4985878;28;20133;-54
2023/02/03 00:50:48;;;;;;;0.40;0.40;;;;;;;2.73;62.46;97046.34;4985245;28;20046;-56
2023/02/03 00:53:15;;;;;;;0.40;0.40;;;;;;;2.05;64.05;96934.16;4985837;28;20421;-54
2023/02/03 00:55:42;;;;;;;0.40;0.40;;;;;;;2.71;62.58;97036.81;4985310;28;20074;-56
2023/02/03 00:58:09;;;;;;;0.40;0.40;;;;;;;2.42;64.50;97001.09;4985376;28;20054;-57
2023/02/03 01:00:35;;;;;;;0.40;0.40;;;;;;;2.81;63.89;97053.72;4984580;28;20058;-57
2023/02/03 01:03:03;;;;;;;0.40;0.40;;;;;;;2.83;65.33;97047.91;4985282;28;20078;-54
2023/02/03 01:05:29;;;;;;;0.40;0.40;;;;;;;2.88;65.46;97047.78;4985180;28;20054;-55
2023/02/03 01:07:56;;;;;;;0.50;0.50;;;;;;;2.89;65.24;97044.72;4995256;28;20091;-56
2023/02/03 01:10:23;;;;;;;0.40;0.40;;;;;;;2.63;66.70;97023.94;5004495;28;20093;-56
2023/02/03 01:12:49;;;;;;;0.50;0.50;;;;;;;2.27;66.66;97009.72;5004355;28;20053;-56
2023/02/03 01:15:16;;;;;;;1.05;1.05;;;;;;;2.59;66.99;97023.00;5004387;28;20493;-54
2023/02/03 01:17:43;;;;;;;0.40;0.40;;;;;;;2.64;67.40;97037.28;5003769;28;20057;-56
2023/02/03 01:20:15;;;;;;;0.40;0.40;;;;;;;2.14;66.44;96975.94;5004533;28;20544;-56
2023/02/03 01:22:41;;;;;;;0.40;0.40;;;;;;;2.25;66.79;96984.66;5004313;28;20883;-55
2023/02/03 01:25:09;;;;;;;0.57;0.57;;;;;;;2.61;67.01;97027.00;5003972;28;20062;-55
2023/02/03 01:27:35;;;;;;;0.73;0.73;;;;;;;2.58;66.53;97021.34;5004553;28;20133;-55
2023/02/03 01:30:03;;;;;;;1.02;1.02;;;;;;;2.30;66.44;96970.84;5004297;28;20050;-56
2023/02/03 01:32:29;;;;;;;25.77;7.07;;;;;;;2.58;65.97;97048.69;5004452;28;20124;-56
2023/02/03 01:34:56;;;;;;;0.40;0.40;;;;;;;2.55;65.74;97052.06;5004207;28;20054;-54
2023/02/03 01:37:23;;;;;;;0.40;0.40;;;;;;;2.45;63.89;97011.38;5004116;28;20054;-57
2023/02/03 01:39:49;;;;;;;2.65;2.45;;;;;;;1.45;64.60;96884.84;5004430;28;20057;-54
2023/02/03 01:42:16;;;;;;;0.40;0.40;;;;;;;2.61;64.28;97037.13;5003926;28;20092;-56
2023/02/03 01:44:50;;;;;;;0.75;0.75;;;;;;;2.66;64.45;97034.22;5004616;28;20061;-57
2023/02/03 01:47:26;;;;;;;0.50;0.50;;;;;;;2.60;63.72;97030.06;5004489;28;20359;-56
2023/02/03 01:50:07;;;;;;;1.00;0.70;;;;;;;2.65;62.16;97043.56;5004607;28;20054;-56
2023/02/03 01:52:35;;;;;;;0.90;0.40;;;;;;;2.41;60.59;96972.13;5003426;28;20422;-55
2023/02/03 01:55:06;;;;;;;0.40;0.40;;;;;;;3.04;59.28;97027.03;5004505;28;20050;-55
2023/02/03 01:57:56;;;;;;;0.60;0.60;;;;;;;3.32;59.10;97063.06;5004592;28;20527;-56
2023/02/03 02:00:23;;;;;;;0.40;0.40;;;;;;;3.23;59.80;97063.06;5003658;28;20273;-56
2023/02/03 02:02:51;;;;;;;0.40;0.40;;;;;;;2.82;59.42;96977.94;5004108;28;20076;-57
2023/02/03 02:05:56;;;;;;;0.80;0.77;;;;;;;3.11;60.26;97054.72;5003721;28;20058;-54
2023/02/03 02:08:24;;;;;;;0.40;0.40;;;;;;;2.92;61.49;97040.53;5004070;28;20053;-57
2023/02/03 02:10:51;;;;;;;0.40;0.40;;;;;;;2.36;62.03;96943.03;5003810;28;20061;-55
2023/02/03 02:13:18;;;;;;;0.50;0.50;;;;;;;2.00;63.96;96966.25;5002396;28;20054;-54
2023/02/03 02:15:57;;;;;;;0.40;0.40;;;;;;;2.75;64.76;97049.53;5001807;28;20081;-56
2023/02/03 02:18:53;;;;;;;0.40;0.40;;;;;;;2.62;64.58;97044.22;5004113;28;20054;-54
2023/02/03 02:21:22;;;;;;;0.40;0.40;;;;;;;2.90;64.31;97078.34;5002274;28;20509;-56
2023/02/03 02:24:10;;;;;;;0.40;0.40;;;;;;;3.01;64.06;97088.66;5003454;28;20133;-57
2023/02/03 02:27:00;;;;;;;0.40;0.40;;;;;;;3.07;64.91;97070.16;5003602;28;20082;-55
2023/02/03 02:29:47;;;;;;;0.40;0.40;;;;;;;3.19;63.41;97070.31;5005510;28;20504;-56
2023/02/03 02:33:11;;;;;;;0.40;0.40;;;;;;;3.36;62.06;97077.72;5006514;28;20058;-56
2023/02/03 02:35:57;;;;;;;0.40;0.40;;;;;;;3.50;61.75;97081.06;5004634;28;20049;-55
2023/02/03 02:38:41;;;;;;;0.50;0.50;;;;;;;3.71;59.65;97080.09;5004597;28;20061;-56
2023/02/03 02:41:13;;;;;;;0.60;0.60;;;;;;;4.00;58.67;97091.13;5005971;28;20073;-56
2023/02/03 02:43:49;;;;;;;0.50;0.50;;;;;;;4.09;58.19;97094.66;5005963;28;20137;-56
2023/02/03 02:46:29;;;;;;;0.40;0.40;;;;;;;4.18;58.38;97089.97;5005331;28;20421;-56
2023/02/03 02:49:02;;;;;;;0.47;0.47;;;;;;;4.19;57.92;97110.75;5007375;28;20054;-55
2023/02/03 02:51:31;;;;;;;0.97;0.83;;;;;;;4.29;57.13;97093.94;5006317;28;20057;-55
2023/02/03 02:54:01;;;;;;;0.50;0.50;;;;;;;3.86;56.63;97024.78;5007371;28;20046;-56
2023/02/03 02:56:32;;;;;;;0.50;0.50;;;;;;;2.25;56.20;96752.41;5006293;28;20104;-55
2023/02/03 02:59:01;;;;;;;0.50;0.50;;;;;;;3.60;55.78;96958.34;5006854;28;20065;-57
2023/02/03 03:01:27;;;;;;;0.80;0.60;;;;;;;4.41;55.93;97085.03;5006429;28;20053;-54
2023/02/03 03:03:55;;;;;;;0.88;0.80;;;;;;;4.30;56.04;97056.38;5006706;28;20076;-56
2023/02/03 03:06:24;;;;;;;0.50;0.50;;;;;;;4.47;55.34;97097.41;5006887;28;20112;-54
2023/02/03 03:09:12;;;;;;;0.70;0.70;;;;;;;4.45;55.29;97108.72;5007020;28;20600;-56
2023/02/03 03:11:52;;;;;;;0.50;0.50;;;;;;;4.46;55.22;97088.38;5004737;28;20097;-56
2023/02/03 03:14:22;;;;;;;0.85;0.80;;;;;;;4.42;55.84;97092.94;5005487;28;20524;-55
2023/02/03 03:16:59;;;;;;;2.15;0.55;;;;;;;4.37;56.69;97084.88;5005842;28;20504;-56
2023/02/03 03:19:36;;;;;;;0.50;0.50;;;;;;;4.33;57.39;97078.44;5006208;28;20108;-56
2023/02/03 03:22:06;;;;;;;0.90;0.90;;;;;;;4.30;57.17;97087.31;5006617;28;20057;-56
2023/02/03 03:24:38;;;;;;;1.58;0.75;;;;;;;4.30;57.35;97084.56;5006810;28;20163;-56
2023/02/03 03:27:19;;;;;;;2.58;0.50;;;;;;;4.12;57.44;97077.56;5006064;28;20140;-55
2023/02/03 03:29:59;;;;;;;0.88;0.70;;;;;;;4.23;57.63;97100.75;5006722;28;20073;-56
2023/02/03 03:32:27;;;;;;;0.47;0.47;;;;;;;4.25;58.32;97076.53;5005941;28;20476;-56
2023/02/03 03:34:54;;;;;;;0.60;0.60;;;;;;;4.31;57.31;97113.63;5006625;28;20558;-54
2023/02/03 03:37:33;;;;;;;0.50;0.50;;;;;;;4.19;57.19;97086.06;5005728;28;20092;-54
2023/02/03 03:40:07;;;;;;;1.13;1.13;;;;;;;4.37;56.95;97123.28;5006185;28;20061;-56
2023/02/03 03:43:00;;;;;;;0.47;0.47;;;;;;;4.36;58.14;97107.94;5005551;28;20509;-57
2023/02/03 03:45:48;;;;;;;0.77;0.77;;;;;;;4.24;59.20;97091.38;5006328;28;20394;-54
2023/02/03 03:48:26;;;;;;;0.60;0.60;;;;;;;4.26;59.08;97115.72;5006306;28;20104;-55
2023/02/03 03:51:00;;;;;;;0.55;0.55;;;;;;;4.20;58.95;97117.84;5005721;28;20092;-55
2023/02/03 03:53:31;;;;;;;0.50;0.50;;;;;;;4.29;58.88;97137.81;5004793;28;20144;-56
2023/02/03 03:56:00;;;;;;;1.15;0.73;;;;;;;4.16;60.13;97127.84;5006455;28;20037;-56
2023/02/03 03:58:30;;;;;;;0.50;0.50;;;;;;;4.29;61.29;97146.03;5005861;28;20054;-56
2023/02/03 04:01:05;;;;;;;0.60;0.60;;;;;;;4.20;61.94;97145.25;5005635;28;20504;-56
2023/02/03 04:03:37;;;;;;;0.50;0.50;;;;;;;4.22;62.27;97150.41;5005930;28;20064;-57
2023/02/03 04:06:04;;;;;;;0.50;0.50;;;;;;;4.01;62.16;97125.66;5004467;28;20056;-56
2023/02/03 04:08:31;;;;;;;0.47;0.47;;;;;;;4.04;62.36;97135.94;5005758;28;20500;-57
2023/02/03 04:10:58;;;;;;;0.82;0.60;;;;;;;4.12;62.25;97154.31;5004328;28;20410;-56
2023/02/03 04:13:25;;;;;;;0.50;0.50;;;;;;;4.31;61.58;97160.22;5005443;28;20085;-56
2023/02/03 04:15:51;;;;;;;0.50;0.50;;;;;;;4.46;60.99;97175.31;5005309;28;20054;-56
2023/02/03 04:18:18;;;;;;;0.50;0.50;;;;;;;4.15;61.18;97137.22;5005254;28;20053;-56
2023/02/03 04:20:45;;;;;;;0.50;0.50;;;;;;;4.26;61.44;97143.13;5004695;28;20140;-57
2023/02/03 04:23:11;;;;;;;0.50;0.50;;;;;;;4.42;60.60;97158.75;4985758;28;20584;-54
2023/02/03 04:25:38;;;;;;;0.50;0.50;;;;;;;3.91;59.84;97093.09;4984205;28;20137;-56
2023/02/03 04:28:05;;;;;;;0.50;0.50;;;;;;;4.39;58.61;97162.09;4985274;28;20058;-54
2023/02/03 04:30:32;;;;;;;17.08;7.03;;;;;;;4.34;58.63;97151.34;4985617;28;20153;-55
2023/02/03 04:32:59;;;;;;;1.48;0.65;;;;;;;4.47;59.13;97175.00;4985288;28;20151;-54
2023/02/03 04:35:26;;;;;;;9.35;8.48;;;;;;;4.46;60.14;97176.13;4985785;28;20049;-57
2023/02/03 04:37:53;;;;;;;15.63;3.78;;;;;;;2.82;61.81;96956.06;4983731;28;20097;-56
2023/02/03 04:40:19;;;;;;;0.80;0.80;;;;;;;4.34;64.57;97184.25;4985193;28;20554;-56
2023/02/03 04:42:46;;;;;;;0.50;0.50;;;;;;;4.11;67.35;97155.44;4983760;28;20116;-54
2023/02/03 04:45:13;;;;;;;0.50;0.50;;;;;;;3.65;68.15;97100.53;4985554;28;20513;-55
2023/02/03 04:47:39;;;;;;;0.50;0.50;;;;;;;4.02;69.60;97176.56;4985221;28;20061;-56
2023/02/03 04:50:06;;;;;;;0.50;0.50;;;;;;;4.06;70.88;97177.50;4985545;28;20146;-57
2023/02/03 04:52:33;;;;;;;1.55;1.40;;;;;;;4.11;70.58;97180.09;4985465;28;20061;-56
2023/02/03 04:55:00;;;;;;;0.50;0.50;;;;;;;4.14;71.25;97163.00;4985326;28;20120;-55
2023/02/03 04:57:26;;;;;;;0.47;0.47;;;;;;;4.06;71.39;97163.81;4985178;28;20129;-56
2023/02/03 04:59:53;;;;;;;1.38;1.33;;;;;;;4.05;68.49;97164.94;4984866;28;20145;-54
2023/02/03 05:02:19;;;;;;;0.40;0.40;;;;;;;3.73;67.49;97113.41;4985338;28;20478;-56
2023/02/03 05:04:46;;;;;;;0.55;0.55;;;;;;;3.94;67.31;97169.16;4984591;28;20058;-57
2023/02/03 05:07:12;;;;;;;0.40;0.40;;;;;;;3.89;67.16;97144.66;4987746;28;20112;-56
2023/02/03 05:09:39;;;;;;;0.50;0.50;;;;;;;1.28;67.15;96742.91;5004715;28;20058;-58
2023/02/03 05:12:06;;;;;;;1.13;0.80;;;;;;;4.02;67.02;97193.00;5004602;28;20058;-54
2023/02/03 05:14:32;;;;;;;1.58;0.60;;;;;;;4.02;66.91;97214.13;5004551;28;20481;-55
2023/02/03 05:16:59;;;;;;;0.77;0.77;;;;;;;3.50;67.35;97136.66;5004520;28;20077;-56
2023/02/03 05:19:25;;;;;;;0.50;0.50;;;;;;;3.61;67.62;97165.31;5004091;28;20087;-55
2023/02/03 05:21:52;;;;;;;1.05;0.95;;;;;;;3.82;68.74;97226.56;5004603;28;20195;-55
2023/02/03 05:24:19;;;;;;;2.58;2.35;;;;;;;3.96;68.66;97232.69;5004485;28;20049;-56
2023/02/03 05:26:45;;;;;;;0.60;0.60;;;;;;;3.96;68.89;97240.09;5004119;28;20104;-55
2023/02/03 05:29:12;;;;;;;0.50;0.50;;;;;;;3.97;68.23;97237.03;5004429;28;20143;-56
2023/02/03 05:31:39;;;;;;;0.60;0.60;;;;;;;3.94;69.68;97245.88;5003178;28;20137;-55
2023/02/03 05:34:05;;;;;;;0.47;0.47;;;;;;;3.45;69.87;97150.50;4993268;28;20054;-55
2023/02/03 05:36:32;;;;;;;1.13;1.13;;;;;;;3.95;70.07;97242.00;4984666;28;20062;-54
2023/02/03 05:38:59;;;;;;;0.60;0.60;;;;;;;3.93;69.53;97244.28;4983145;28;20054;-55
2023/02/03 05:44:11;;;;;;;0.80;0.80;;;;;;;3.96;70.78;97275.72;4984658;28;20062;-55
2023/02/03 05:46:37;;;;;;;0.50;0.50;;;;;;;3.92;71.54;97275.53;4984445;28;20093;-55
2023/02/03 05:49:04;;;;;;;0.40;0.40;;;;;;;4.02;71.46;97275.22;4984836;28;20054;-55
2023/02/03 05:51:30;;;;;;;0.85;0.60;;;;;;;3.68;72.34;97239.59;4984750;28;20094;-57
2023/02/03 05:53:57;;;;;;;1.58;0.80;;;;;;;3.98;73.24;97307.13;4984625;28;20054;-54
2023/02/03 05:56:24;;;;;;;0.40;0.40;;;;;;;3.38;73.40;97215.09;4984278;28;20141;-56
2023/02/03 05:58:52;;;;;;;0.40;0.40;;;;;;;3.24;74.18;97204.25;4983346;28;20497;-55
2023/02/03 06:01:19;;;;;;;0.95;0.82;;;;;;;3.63;75.63;97296.47;4996415;28;20054;-57
2023/02/03 06:03:47;;;;;;;8.57;1.02;;;;;;;3.81;74.98;97296.16;4984881;28;20061;-56
2023/02/03 06:06:14;;;;;;;7.25;0.93;;;;;;;3.31;73.83;97231.97;4988480;28;20117;-54
2023/02/03 06:08:41;;;;;;;0.47;0.47;;;;;;;3.72;73.17;97276.19;5003064;28;20279;-56
2023/02/03 06:11:09;;;;;;;0.52;0.52;;;;;;;3.85;73.44;97294.41;5007886;28;20769;-54
2023/02/03 06:13:35;;;;;;;0.50;0.50;;;;;;;3.67;74.10;97279.06;5007962;28;20555;-54
2023/02/03 06:16:03;;;;;;;0.70;0.70;;;;;;;3.68;73.93;97280.69;5007638;28;20104;-56
2023/02/03 06:18:29;;;;;;;0.85;0.80;;;;;;;3.09;73.20;97178.16;4994490;28;20062;-56
2023/02/03 06:20:56;;;;;;;0.60;0.50;;;;;;;3.80;73.61;97299.22;4986155;28;20054;-57
2023/02/03 06:23:23;;;;;;;0.45;0.45;;;;;;;3.84;73.55;97290.03;4987924;28;20073;-56
2023/02/03 06:25:50;;;;;;;0.40;0.40;;;;;;;3.84;73.51;97289.25;4987792;28;20050;-57
2023/02/03 06:28:17;;;;;;;0.50;0.50;;;;;;;3.64;73.32;97241.38;4986678;28;20089;-54
2023/02/03 06:30:44;;;;;;;5.53;1.88;;;;;;;3.95;72.71;97282.31;4987514;28;20050;-54
2023/02/03 06:33:11;;;;;;;1.75;1.65;;;;;;;3.89;71.84;97265.22;4987870;28;20133;-55
2023/02/03 06:35:37;;;;;;;0.82;0.82;;;;;;;4.08;71.50;97284.91;4986065;28;20061;-56
2023/02/03 06:38:04;;;;;;;2.22;1.17;;;;;;;4.04;70.61;97272.97;4987866;28;20140;-54
2023/02/03 06:40:30;;;;;;;0.40;0.40;;;;;;;3.93;70.69;97244.28;4987550;28;20454;-54
2023/02/03 06:42:57;;;;;;;0.60;0.60;;;;;;;3.86;70.12;97224.78;4987771;28;20046;-57
2023/02/03 06:45:24;;;;;;;11.27;1.75;;;;;;;4.14;70.12;97275.38;4987382;28;20054;-58
2023/02/03 06:47:51;;;;;;;1.75;1.05;;;;;;;4.35;70.10;97309.22;4987409;28;20138;-57
2023/02/03 06:50:18;;;;;;;0.70;0.70;;;;;;;3.73;70.35;97212.03;4987255;28;20493;-53
2023/02/03 06:52:45;;;;;;;0.50;0.50;;;;;;;4.25;71.08;97312.28;4987682;28;20042;-56
2023/02/03 06:55:12;;;;;;;0.50;0.50;;;;;;;4.01;71.99;97295.56;4987283;28;20069;-53
2023/02/03 06:57:43;;;;;;;0.60;0.60;;;;;;;4.19;72.42;97321.00;4987002;28;20544;-57
2023/02/03 07:00:12;;;;;;;0.57;0.57;;;;;;;4.23;72.70;97331.03;4990477;28;20141;-53
2023/02/03 07:02:41;;;;;;;0.70;0.70;;;;;;;3.63;73.84;97250.72;4986819;28;20046;-55
2023/02/03 07:05:08;;;;;;;0.50;0.50;;;;;;;4.12;74.68;97340.69;4993829;28;20073;-60
2023/02/03 07:07:37;;;;;;;9.05;1.70;;;;;;;3.48;75.49;97248.44;5004817;28;20050;-57
2023/02/03 07:10:05;;;;;;;0.40;0.40;;;;;;;4.06;75.75;97303.59;4994386;28;20060;-58
2023/02/03 07:12:32;;;;;;;3.05;2.85;;;;;;;4.22;75.54;97345.84;5002000;28;20060;-58
2023/02/03 07:14:59;;;;;;;0.40;0.40;;;;;;;4.28;74.60;97327.31;5001360;28;20050;-57
2023/02/03 07:17:25;;;;;;;0.65;0.60;;;;;;;4.35;73.69;97328.44;4985855;28;20112;-58
2023/02/03 07:19:52;;;;;;;1.10;1.10;;;;;;;4.41;73.11;97332.63;4993384;28;20057;-61
2023/02/03 07:22:19;;;;;;;5.45;3.22;;;;;;;4.45;71.26;97333.59;4994826;28;20612;-58
2023/02/03 07:24:45;;;;;;;3.80;1.95;;;;;;;4.47;70.21;97352.47;5007879;28;20049;-59
2023/02/03 07:27:12;;;;;;;0.80;0.80;;;;;;;4.34;68.53;97340.53;4997377;28;20109;-61
2023/02/03 07:29:39;;;;;;;0.50;0.50;;;;;;;4.54;68.20;97358.25;4996951;28;20092;-58
2023/02/03 07:32:06;;;;;;;0.90;0.90;;;;;;;3.96;67.20;97243.63;4990723;28;20058;-57
2023/02/03 07:34:33;;;;;;;1.05;0.90;;;;;;;4.24;66.67;97299.72;4999311;28;20223;-58
2023/02/03 07:36:59;;;;;;;1.83;0.90;;;;;;;4.68;66.62;97355.34;4999721;28;20050;-57
2023/02/03 07:39:26;;;;;;;0.65;0.65;;;;;;;4.62;66.94;97361.00;5006181;28;20123;-56
2023/02/03 07:41:53;;;;;;;1.38;0.70;;;;;;;4.61;67.71;97359.41;4999424;28;20213;-55
2023/02/03 07:44:19;;;;;;;1.48;1.15;;;;;;;4.54;67.96;97363.75;5008304;28;20120;-57
2023/02/03 07:46:46;;;;;;;2.17;0.82;;;;;;;3.64;68.49;97249.59;5024539;28;20123;-57
2023/02/03 07:49:14;;;;;;;0.90;0.90;;;;;;;3.65;68.79;97281.31;5003272;28;20481;-59
2023/02/03 07:51:41;;;;;;;0.80;0.80;;;;;;;4.29;69.19;97373.59;4992916;28;20140;-60
2023/02/03 07:54:08;;;;;;;3.42;1.63;;;;;;;3.08;69.60;97195.69;4994986;28;20105;-58
2023/02/03 07:56:34;;;;;;;1.38;0.82;;;;;;;4.11;69.53;97361.00;4997917;28;20532;-58
2023/02/03 07:59:02;;;;;;;1.77;0.70;;;;;;;4.35;70.04;97391.50;5000620;28;20114;-59
2023/02/03 08:01:30;;;;;;;0.65;0.63;;;;;;;4.29;69.31;97392.78;5005051;28;20061;-58
2023/02/03 08:03:57;;;;;;;0.50;0.50;;;;;;;3.37;69.44;97246.34;5003832;28;20409;-59
2023/02/03 08:06:23;;;;;;;0.57;0.57;;;;;;;4.48;70.68;97412.50;5002488;28;20436;-57
2023/02/03 08:08:50;;;;;;;1.02;0.90;;;;;;;4.48;70.33;97420.72;4995033;28;20085;-60
2023/02/03 08:11:17;;;;;;;0.70;0.70;;;;;;;4.46;70.72;97406.50;5002844;28;20050;-56
2023/02/03 08:13:43;;;;;;;0.50;0.50;;;;;;;4.58;70.44;97409.41;5002538;28;20143;-58
2023/02/03 08:16:10;;;;;;;0.50;0.50;;;;;;;4.71;69.71;97412.31;4993645;28;20535;-58
2023/02/03 08:18:37;;;;;;;0.60;0.60;;;;;;;4.44;69.64;97364.88;4988992;28;20488;-58
2023/02/03 08:21:04;;;;;;;0.70;0.70;;;;;;;4.84;68.54;97401.16;4995867;28;20572;-61
2023/02/03 08:23:30;;;;;;;0.50;0.50;;;;;;;4.37;68.71;97364.56;4994572;28;20050;-55
2023/02/03 08:25:57;;;;;;;1.77;0.68;;;;;;;4.29;69.87;97345.38;4985442;28;20125;-59
2023/02/03 08:28:24;;;;;;;1.20;1.20;;;;;;;5.00;70.18;97415.19;4994827;28;20129;-56
2023/02/03 08:30:51;;;;;;;0.70;0.70;;;;;;;5.26;68.70;97429.69;5004825;28;20327;-56
2023/02/03 08:33:17;;;;;;;1.13;0.90;;;;;;;5.27;68.13;97406.56;4990783;28;20116;-56
2023/02/03 08:35:46;;;;;;;0.98;0.82;;;;;;;5.11;67.53;97367.03;4993354;28;20629;-58
2023/02/03 08:38:13;;;;;;;1.10;0.70;;;;;;;4.88;68.42;97368.38;5003825;28;20061;-57
2023/02/03 08:40:39;;;;;;;1.05;0.98;;;;;;;5.03;67.78;97409.03;5002290;28;20085;-55
2023/02/03 08:43:06;;;;;;;0.60;0.60;;;;;;;5.22;68.40;97428.72;5003070;28;20049;-55
2023/02/03 08:45:33;;;;;;;1.23;1.05;;;;;;;5.51;68.51;97434.28;4985054;28;20054;-58
2023/02/03 08:47:59;;;;;;;2.58;1.42;;;;;;;5.52;69.61;97441.41;4999658;28;20111;-57
2023/02/03 08:50:26;;;;;;;1.88;1.15;;;;;;;4.91;72.03;97389.69;4988541;28;20058;-57
2023/02/03 08:52:53;;;;;;;1.15;1.05;;;;;;;5.38;73.15;97454.53;4999673;28;20081;-57
2023/02/03 08:55:20;;;;;;;0.60;0.60;;;;;;;4.34;74.69;97272.00;5001677;28;20208;-56
2023/02/03 08:57:46;;;;;;;0.70;0.70;;;;;;;5.28;76.48;97443.91;5010699;28;20555;-58
2023/02/03 09:00:14;;;;;;;2.83;1.50;;;;;;;5.35;75.63;97455.19;5015386;28;20064;-56
2023/02/03 09:02:40;;;;;;;1.65;1.08;;;;;;;5.31;76.25;97454.22;4995077;28;20065;-59
2023/02/03 09:05:07;;;;;;;0.55;0.55;;;;;;;4.93;76.30;97381.94;4986311;28;20058;-56
2023/02/03 09:07:34;;;;;;;1.13;1.02;;;;;;;4.95;76.74;97398.91;4989289;28;20077;-55
2023/02/03 09:10:01;;;;;;;9.52;2.97;;;;;;;5.16;76.29;97430.00;4998992;28;21126;-60
2023/02/03 09:12:27;;;;;;;2.00;0.85;;;;;;;5.23;75.43;97424.84;4984476;28;20149;-56
2023/02/03 09:14:54;;;;;;;0.70;0.70;;;;;;;5.43;73.73;97451.59;5000320;28;20054;-56
2023/02/03 09:17:21;;;;;;;1.50;1.00;;;;;;;5.62;70.99;97452.84;5001722;28;20433;-57
2023/02/03 09:19:48;;;;;;;2.50;1.23;;;;;;;5.45;71.62;97422.69;5003984;28;20124;-58
2023/02/03 09:22:14;;;;;;;0.82;0.82;;;;;;;5.67;70.13;97432.63;5015660;28;20057;-58
2023/02/03 09:24:42;;;;;;;0.60;0.60;;;;;;;5.58;69.20;97426.38;5009438;28;20156;-56
2023/02/03 09:27:08;;;;;;;0.70;0.70;;;;;;;3.17;67.53;97038.94;5008217;28;20380;-56
2023/02/03 09:29:35;;;;;;;1.23;0.65;;;;;;;5.68;68.31;97458.97;5003432;28;20061;-57
2023/02/03 09:32:06;;;;;;;0.60;0.60;;;;;;;5.54;68.79;97455.63;5004690;28;20445;-60
2023/02/03 09:34:33;;;;;;;0.50;0.50;;;;;;;5.27;69.46;97415.63;5009969;28;20050;-58
2023/02/03 09:37:00;;;;;;;0.55;0.55;;;;;;;5.49;68.24;97458.53;4999657;28;20108;-57
2023/02/03 09:39:26;;;;;;;0.50;0.50;;;;;;;5.46;69.93;97453.69;4994506;28;20050;-57
2023/02/03 09:42:24;;;;;;;0.60;0.60;;;;;;;5.62;70.03;97449.28;4991069;28;20054;-54
2023/02/03 09:45:16;;;;;;;0.50;0.50;;;;;;;5.68;68.01;97450.72;5004554;28;20076;-58
2023/02/03 09:47:44;;;;;;;1.55;0.80;;;;;;;5.72;65.46;97454.44;5005989;28;20077;-57
2023/02/03 09:50:20;;;;;;;0.52;0.52;;;;;;;5.81;67.26;97446.97;5009937;28;20108;-56
2023/02/03 09:52:47;;;;;;;0.70;0.70;;;;;;;5.68;66.56;97461.72;4987572;28;20125;-57
2023/02/03 09:55:33;;;;;;;1.38;0.77;;;;;;;5.61;67.24;97453.19;5002612;28;20042;-57
2023/02/03 09:58:13;;;;;;;2.42;1.02;;;;;;;5.73;66.89;97445.03;4998896;28;20050;-55
2023/02/03 10:00:48;;;;;;;0.80;0.80;;;;;;;5.27;66.53;97365.38;5004051;28;20082;-59
2023/02/03 10:03:26;;;;;;;0.77;0.65;;;;;;;5.56;68.11;97450.59;4987156;28;20050;-55
2023/02/03 10:06:08;;;;;;;0.85;0.85;;;;;;;5.55;68.49;97443.47;4991228;28;20492;-58
2023/02/03 10:08:50;;;;;;;1.95;1.70;;;;;;;5.66;67.81;97439.25;5003603;28;20073;-59
2023/02/03 10:11:22;;;;;;;0.82;0.82;;;;;;;5.89;68.68;97432.41;4987832;28;20054;-56
2023/02/03 10:14:19;;;;;;;1.08;1.08;;;;;;;6.13;65.16;97408.63;4998446;28;20076;-58
2023/02/03 10:16:51;;;;;;;0.60;0.60;;;;;;;6.42;62.42;97429.81;5007007;28;20488;-59
2023/02/03 10:19:25;;;;;;;4.43;2.13;;;;;;;6.36;60.17;97391.84;5000845;28;20042;-59
2023/02/03 10:21:57;;;;;;;1.98;1.88;;;;;;;7.00;59.63;97423.38;5003074;28;20058;-60
2023/02/03 10:24:45;;;;;;;0.70;0.70;;;;;;;7.19;57.60;97432.75;4997711;28;20058;-58
2023/02/03 10:27:21;;;;;;;0.60;0.60;;;;;;;7.33;56.42;97433.25;5008705;28;20050;-60
2023/02/03 10:29:55;;;;;;;0.80;0.80;;;;;;;7.40;55.01;97430.75;5003570;28;20092;-58
2023/02/03 10:32:25;;;;;;;1.77;1.25;;;;;;;6.72;54.87;97329.53;4993559;28;20429;-58
2023/02/03 10:34:52;;;;;;;0.60;0.60;;;;;;;7.02;53.63;97390.78;5007112;28;20054;-60
2023/02/03 10:37:36;;;;;;;0.60;0.60;;;;;;;7.03;54.66;97429.03;5006738;28;20065;-59
2023/02/03 10:40:04;;;;;;;0.60;0.60;;;;;;;7.02;55.37;97462.38;5006672;28;20066;-60
2023/02/03 10:45:19;;;;;;;1.20;0.80;;;;;;;6.75;55.08;97444.47;5006174;28;20488;-59
2023/02/03 10:47:54;;;;;;;0.70;0.70;;;;;;;6.55;56.61;97442.53;5006895;28;20058;-60
2023/02/03 10:50:30;;;;;;;0.70;0.70;;;;;;;6.67;56.55;97437.09;5004701;28;20058;-60
2023/02/03 10:53:19;;;;;;;6.22;1.35;;;;;;;6.73;56.00;97423.94;5004970;28;20066;-60
2023/02/03 10:55:49;;;;;;;1.08;0.80;;;;;;;6.25;56.17;97352.91;5004988;28;20053;-59
2023/02/03 10:58:25;;;;;;;0.70;0.70;;;;;;;6.63;57.90;97414.13;5006530;28;20102;-59
2023/02/03 11:01:14;;;;;;;1.00;1.00;;;;;;;6.47;58.29;97377.34;5006419;28;20058;-61
2023/02/03 11:03:43;;;;;;;0.95;0.93;;;;;;;6.52;60.58;97415.69;5005005;28;20042;-59
2023/02/03 11:06:16;;;;;;;1.70;1.05;;;;;;;6.31;63.13;97422.31;5005987;28;20686;-59
2023/02/03 11:08:48;;;;;;;0.68;0.68;;;;;;;6.41;63.80;97399.91;5006198;28;20061;-59
2023/02/03 11:11:21;;;;;;;0.80;0.75;;;;;;;6.74;61.33;97403.50;5003879;28;20053;-59
2023/02/03 11:13:59;;;;;;;0.77;0.77;;;;;;;6.97;57.85;97408.31;5002666;28;20460;-57
2023/02/03 11:16:25;;;;;;;1.88;1.65;;;;;;;6.91;57.00;97401.41;5006441;28;20061;-56
2023/02/03 11:19:02;;;;;;;0.93;0.93;;;;;;;6.92;58.02;97403.06;5004640;28;20532;-56
2023/02/03 11:21:38;;;;;;;0.80;0.70;;;;;;;7.14;58.18;97388.91;4998157;28;20058;-57
2023/02/03 11:24:25;;;;;;;0.70;0.70;;;;;;;7.09;57.76;97394.63;5012935;28;20062;-57
2023/02/03 11:26:55;;;;;;;9.05;0.80;;;;;;;7.51;56.24;97390.59;5006501;28;20081;-59
2023/02/03 11:29:25;;;;;;;0.85;0.85;;;;;;;7.51;56.31;97390.59;5012657;28;20148;-59
2023/02/03 11:31:54;;;;;;;1.52;1.35;;;;;;;7.46;56.07;97377.03;4991757;28;20125;-57
2023/02/03 11:34:26;;;;;;;1.02;0.90;;;;;;;6.77;54.11;97271.50;5028216;28;20473;-58
2023/02/03 11:36:53;;;;;;;2.70;1.77;;;;;;;7.30;53.61;97356.78;4994861;28;20065;-60
2023/02/03 11:39:28;;;;;;;0.60;0.60;;;;;;;7.56;54.69;97390.38;5003776;28;20140;-56
2023/02/03 11:41:55;;;;;;;1.27;1.23;;;;;;;7.01;54.56;97252.28;5004311;28;20085;-56
2023/02/03 11:44:25;;;;;;;2.53;2.10;;;;;;;7.84;53.35;97353.84;4997269;28;20053;-60
2023/02/03 11:46:57;;;;;;;5.47;1.15;;;;;;;8.14;52.13;97353.25;4995404;28;20108;-57
2023/02/03 11:49:44;;;;;;;3.60;1.20;;;;;;;8.17;51.47;97377.38;5018041;28;20064;-59
2023/02/03 11:52:25;;;;;;;1.90;1.20;;;;;;;8.17;51.85;97374.63;5000181;28;20046;-58
2023/02/03 11:55:33;;;;;;;1.38;1.27;;;;;;;7.88;52.01;97388.66;5000248;28;20528;-58
2023/02/03 11:58:25;;;;;;;4.28;1.70;;;;;;;7.76;52.18;97379.59;5002919;28;20132;-57
2023/02/03 12:01:10;;;;;;;1.27;1.27;;;;;;;7.61;52.60;97373.59;5003788;28;20070;-59
2023/02/03 12:04:14;;;;;;;0.82;0.82;;;;;;;7.64;52.70;97364.66;4997226;28;20048;-58